Terminal Aerodrome Forecast
Issued by NWS Blacksburg, VA

Current Version | Previous Version | Graphics & Text | Print | Product List | Glossary On
Versions: 1 2 3 4 5 6 7 8 9 10 11 12 13 14 15 16 17 18
000
FTUS41 KRNK 170523
TAFBLF
TAF
KBLF 170523Z 1706/1806 22004KT P6SM SCT060
      TEMPO 1709/1712 5SM BR BKN025
     FM171200 23004KT P6SM BKN020
     FM171600 25005KT P6SM VCTS BKN035CB
     FM172300 22004KT P6SM SCT050 BKN150=

USA.gov is the U.S. government's official web portal to all federal, state and local government web resources and services.